createdAt,value
2019-03-26T00:01:59.305Z,100456.84
2019-03-26T00:04:08.321Z,100464.09
2019-03-26T00:06:10.369Z,100449.64
2019-03-26T00:08:13.535Z,100460.06
2019-03-26T00:10:16.667Z,100459.55
2019-03-26T00:12:18.932Z,100455.8
2019-03-26T00:14:21.098Z,100449.77
2019-03-26T00:16:23.158Z,100452.89
2019-03-26T00:18:26.755Z,100460.44
2019-03-26T00:20:28.919Z,100452.56
2019-03-26T00:22:30.982Z,100462.95
2019-03-26T00:24:33.043Z,100457.19
2019-03-26T00:26:36.167Z,100459.17
2019-03-26T00:28:38.397Z,100460.22
2019-03-26T00:30:40.626Z,100463.63
2019-03-26T00:32:42.619Z,100463.84
2019-03-26T00:34:44.889Z,100464.78
2019-03-26T00:36:46.970Z,100465.22
2019-03-26T00:38:50.427Z,100467.47
2019-03-26T00:40:54.356Z,100461.05
2019-03-26T00:42:57.579Z,100468.55
2019-03-26T00:45:01.873Z,100462.48
2019-03-26T00:47:03.909Z,100466.97
2019-03-26T00:49:05.975Z,100468.3
2019-03-26T00:51:08.243Z,100469.05
2019-03-26T00:53:10.304Z,100471.47
2019-03-26T00:55:23.938Z,100474.17
2019-03-26T00:57:26.186Z,100471.45
2019-03-26T00:59:28.367Z,100473.12
2019-03-26T01:01:30.530Z,100476.41
2019-03-26T01:03:32.797Z,100476.06
2019-03-26T01:05:36.698Z,100480.88
2019-03-26T01:07:39.071Z,100484.42
2019-03-26T01:09:41.108Z,100485.13
2019-03-26T01:11:43.194Z,100491.05
2019-03-26T01:13:46.587Z,100490.08
2019-03-26T01:15:48.927Z,100489.91
2019-03-26T01:17:52.972Z,100495.59
2019-03-26T01:19:56.256Z,100491.17
2019-03-26T01:22:00.187Z,100499.58
2019-03-26T01:24:03.351Z,100501.25
2019-03-26T01:26:05.511Z,100514.48
2019-03-26T01:28:07.777Z,100512.05
2019-03-26T01:30:10.043Z,100517.12
2019-03-26T01:32:13.935Z,100520.79
2019-03-26T01:34:17.034Z,100520.88
2019-03-26T01:36:19.097Z,100532.23
2019-03-26T01:38:21.259Z,100530.84
2019-03-26T01:40:23.422Z,100535.66
2019-03-26T01:42:25.588Z,100536.37
2019-03-26T01:44:29.478Z,100542.31
2019-03-26T01:46:31.567Z,100536.59
2019-03-26T01:48:33.779Z,100541.72
2019-03-26T01:50:35.985Z,100534.76
2019-03-26T01:52:39.333Z,100545.66
2019-03-26T01:54:41.439Z,100546.19
2019-03-26T01:56:43.807Z,100546.63
2019-03-26T01:58:45.972Z,100547.09
2019-03-26T02:00:48.034Z,100548.75
2019-03-26T02:02:51.234Z,100549.59
2019-03-26T02:05:01.067Z,100548.33
2019-03-26T02:07:03.230Z,100546.25
2019-03-26T02:09:05.328Z,100547.45
2019-03-26T02:11:07.353Z,100539.28
2019-03-26T02:13:09.722Z,100547.08
2019-03-26T02:15:11.887Z,100552.8
2019-03-26T02:17:14.142Z,100553.75
2019-03-26T02:19:18.269Z,100553.17
2019-03-26T02:21:20.632Z,100546.65
2019-03-26T02:23:22.744Z,100542.27
2019-03-26T02:25:25.062Z,100538.89
2019-03-26T02:27:27.328Z,100537.5
2019-03-26T02:29:29.345Z,100536.98
2019-03-26T02:31:32.541Z,100539.56
2019-03-26T02:33:34.643Z,100540.92
2019-03-26T02:35:37.008Z,100542.39
2019-03-26T02:37:40.150Z,100543.88
2019-03-26T02:39:42.360Z,100539.77
2019-03-26T02:41:44.525Z,100537.36
2019-03-26T02:43:46.749Z,100539.69
2019-03-26T02:45:48.957Z,100541.3
2019-03-26T02:47:51.222Z,100543.59
2019-03-26T02:49:53.390Z,100548.4
2019-03-26T02:51:55.550Z,100554.22
2019-03-26T02:53:57.795Z,100548.03
2019-03-26T02:56:00.184Z,100554.23
2019-03-26T02:58:02.252Z,100549.72
2019-03-26T03:00:04.421Z,100551.52
2019-03-26T03:02:06.474Z,100555.12
2019-03-26T03:04:08.536Z,100558.42
2019-03-26T03:06:10.592Z,100558.86
2019-03-26T03:08:12.657Z,100562.61
2019-03-26T03:10:15.027Z,100556.64
2019-03-26T03:12:18.421Z,100566.72
2019-03-26T03:14:20.687Z,100566.42
2019-03-26T03:16:22.953Z,100567.19
2019-03-26T03:18:25.125Z,100569.98
2019-03-26T03:20:27.372Z,100562.55
2019-03-26T03:22:29.550Z,100568.41
2019-03-26T03:24:31.815Z,100570.77
2019-03-26T03:26:33.857Z,100576.56
2019-03-26T03:28:35.893Z,100573.46
2019-03-26T03:30:39.587Z,100579.87
2019-03-26T03:32:44.278Z,100582.05
2019-03-26T03:34:46.628Z,100581.75
2019-03-26T03:36:48.791Z,100580.4
2019-03-26T03:38:51.879Z,100580.95
2019-03-26T03:40:54.044Z,100584.7
2019-03-26T03:42:56.105Z,100586.52
2019-03-26T03:44:58.135Z,100583.55
2019-03-26T03:47:01.769Z,100589.81
2019-03-26T03:49:04.039Z,100589.48
2019-03-26T03:51:06.193Z,100595.86
2019-03-26T03:53:09.585Z,100597.78
2019-03-26T03:55:13.081Z,100597.31
2019-03-26T03:57:15.246Z,100596.42
2019-03-26T03:59:17.613Z,100594.8
2019-03-26T04:01:20.802Z,100592.42
2019-03-26T04:03:23.071Z,100597.45
2019-03-26T04:05:26.154Z,100602.73
2019-03-26T04:07:30.686Z,100601.34
2019-03-26T04:09:32.909Z,100605.67
2019-03-26T04:11:36.031Z,100597.81
2019-03-26T04:13:39.421Z,100599.8
2019-03-26T04:15:41.481Z,100604.32
2019-03-26T04:17:43.747Z,100598.93
2019-03-26T04:19:47.632Z,100597.97
2019-03-26T04:21:49.918Z,100598.7
2019-03-26T04:23:54.096Z,100601.27
2019-03-26T04:25:57.515Z,100603.52
2019-03-26T04:27:59.789Z,100603.45
2019-03-26T04:30:02.023Z,100597.34
2019-03-26T04:32:04.229Z,100596.39
2019-03-26T04:34:06.384Z,100592.52
2019-03-26T04:36:26.548Z,100590.87
2019-03-26T04:38:29.962Z,100596.81
2019-03-26T04:40:32.126Z,100584.78
2019-03-26T04:42:34.395Z,100586.21
2019-03-26T04:44:36.556Z,100579.63
2019-03-26T04:46:41.188Z,100579.73
2019-03-26T04:48:43.343Z,100589.28
2019-03-26T04:50:45.409Z,100589.45
2019-03-26T04:52:49.398Z,100587.19
2019-03-26T04:54:51.474Z,100581.48
2019-03-26T04:56:55.691Z,100592.55
2019-03-26T04:58:57.850Z,100586.72
2019-03-26T05:00:59.920Z,100594.09
2019-03-26T05:03:02.178Z,100602.91
2019-03-26T05:05:05.673Z,100602.33
2019-03-26T05:07:07.837Z,100598.33
2019-03-26T05:09:11.333Z,100603.06
2019-03-26T05:11:13.394Z,100607.05
2019-03-26T05:13:15.558Z,100602.98
2019-03-26T05:15:19.155Z,100609.37
2019-03-26T05:17:21.422Z,100616.8
2019-03-26T05:19:23.489Z,100621.59
2019-03-26T05:21:25.750Z,100624.05
2019-03-26T05:23:28.019Z,100616.8
2019-03-26T05:25:30.285Z,100621.42
2019-03-26T05:27:47.864Z,100620.33
2019-03-26T05:29:50.995Z,100618.02
2019-03-26T05:31:54.129Z,100621.45
2019-03-26T05:33:57.269Z,100624.06
2019-03-26T05:35:59.535Z,100615.3
2019-03-26T05:38:03.034Z,100618.91
2019-03-26T05:40:05.298Z,100612.81
2019-03-26T05:42:08.480Z,100614.33
2019-03-26T05:44:11.981Z,100612.45
2019-03-26T05:46:15.845Z,100618.36
2019-03-26T05:48:20.040Z,100624.5
2019-03-26T05:50:22.263Z,100627.2
2019-03-26T05:52:25.639Z,100628.95
2019-03-26T05:54:27.716Z,100632
2019-03-26T05:56:31.825Z,100632.88
2019-03-26T05:58:34.275Z,100629.06
2019-03-26T06:00:36.461Z,100628.14
2019-03-26T06:02:38.523Z,100626.13
2019-03-26T06:04:42.502Z,100635.27
2019-03-26T06:06:44.695Z,100637.83
2019-03-26T06:08:46.758Z,100637.6
2019-03-26T06:10:48.919Z,100637.48
2019-03-26T06:12:53.456Z,100641.92
2019-03-26T06:14:55.558Z,100642.69
2019-03-26T06:16:59.497Z,100647.67
2019-03-26T06:19:02.890Z,100641.99
2019-03-26T06:21:05.065Z,100635.7
2019-03-26T06:23:08.460Z,100637.78
2019-03-26T06:25:10.658Z,100640.02
2019-03-26T06:27:12.891Z,100627.78
2019-03-26T06:29:14.951Z,100623.2
2019-03-26T06:31:17.018Z,100625.93
2019-03-26T06:33:19.138Z,100631.53
2019-03-26T06:35:21.138Z,100631.98
2019-03-26T06:37:23.312Z,100630.84
2019-03-26T06:39:25.464Z,100628.34
2019-03-26T06:41:27.525Z,100619.15
2019-03-26T06:43:29.586Z,100626.22
2019-03-26T06:45:31.854Z,100619.27
2019-03-26T06:47:34.025Z,100623
2019-03-26T06:49:36.080Z,100628.36
2019-03-26T06:51:40.462Z,100622.77
2019-03-26T06:53:44.709Z,100623.06
2019-03-26T06:55:47.137Z,100623.47
2019-03-26T06:57:51.371Z,100623.89
2019-03-26T06:59:55.617Z,100620.47
2019-03-26T07:01:57.869Z,100617.83
2019-03-26T07:04:00.033Z,100616.37
2019-03-26T07:06:02.302Z,100620.23
2019-03-26T07:08:06.349Z,100617.75
2019-03-26T07:10:10.113Z,100610.52
2019-03-26T07:12:12.170Z,100604.93
2019-03-26T07:14:14.214Z,100598.85
2019-03-26T07:16:16.504Z,100600.16
2019-03-26T07:18:18.768Z,100601.55
2019-03-26T07:20:20.931Z,100594.76
2019-03-26T07:22:23.094Z,100593.16
2019-03-26T07:24:25.259Z,100589.22
2019-03-26T07:26:27.526Z,100587.94
2019-03-26T07:28:29.690Z,100591.43
2019-03-26T07:30:31.730Z,100592.22
2019-03-26T07:32:34.017Z,100593.37
2019-03-26T07:34:36.181Z,100591.81
2019-03-26T07:36:38.243Z,100590.66
2019-03-26T07:38:41.373Z,100584.12
2019-03-26T07:40:44.568Z,100586.33
2019-03-26T07:42:46.783Z,100584.98
2019-03-26T07:44:48.849Z,100587.91
2019-03-26T07:46:50.907Z,100588.36
2019-03-26T07:48:53.070Z,100584.65
2019-03-26T07:50:55.095Z,100577.67
2019-03-26T07:52:57.200Z,100578.04
2019-03-26T07:54:59.361Z,100580.91
2019-03-26T07:57:01.422Z,100591.36
2019-03-26T07:59:04.712Z,100574.68
2019-03-26T08:01:06.773Z,100573.83
2019-03-26T08:03:08.936Z,100570.55
2019-03-26T08:05:10.995Z,100572.06
2019-03-26T08:07:13.044Z,100570.46
2019-03-26T08:09:15.350Z,100567.3
2019-03-26T08:11:17.489Z,100562.63
2019-03-26T08:13:21.383Z,100564.08
2019-03-26T08:15:23.590Z,100564.73
2019-03-26T08:17:25.639Z,100568.83
2019-03-26T08:19:27.889Z,100556.19
2019-03-26T08:21:30.052Z,100554.34
2019-03-26T08:23:32.215Z,100562.53
2019-03-26T08:25:35.404Z,100563.73
2019-03-26T08:27:37.465Z,100564.2
2019-03-26T08:29:39.732Z,100562.98
2019-03-26T08:31:41.898Z,100559.34
2019-03-26T08:33:44.163Z,100553.8
2019-03-26T08:35:46.223Z,100562.59
2019-03-26T08:37:48.259Z,100560.45
2019-03-26T08:39:50.375Z,100555.44
2019-03-26T08:41:52.612Z,100549.57
2019-03-26T08:43:54.948Z,100548.04
2019-03-26T08:45:57.095Z,100548.53
2019-03-26T08:47:59.412Z,100550
2019-03-26T08:50:01.477Z,100548.47
2019-03-26T08:52:03.762Z,100547.32
2019-03-26T08:54:05.889Z,100538.94
2019-03-26T08:56:08.069Z,100538.32
2019-03-26T08:58:10.235Z,100527.88
2019-03-26T09:00:12.500Z,100531.27
2019-03-26T09:02:14.562Z,100526.74
2019-03-26T09:04:16.609Z,100529.89
2019-03-26T09:06:18.809Z,100530.23
2019-03-26T09:08:26.788Z,100519.22
2019-03-26T09:10:29.054Z,100512.7
2019-03-26T09:12:31.285Z,100518.03
2019-03-26T09:14:33.382Z,100509.77
2019-03-26T09:16:35.632Z,100509.5
2019-03-26T09:18:37.813Z,100501.2
2019-03-26T09:20:39.874Z,100495.63
2019-03-26T09:22:41.887Z,100496.39
2019-03-26T09:24:44.004Z,100490.76
2019-03-26T09:26:46.060Z,100485.88
2019-03-26T09:28:49.338Z,100484.56
2019-03-26T09:30:56.867Z,100479.52
2019-03-26T09:32:59.023Z,100475.75
2019-03-26T09:35:01.272Z,100487.42
2019-03-26T09:37:03.441Z,100480.95
2019-03-26T09:39:05.500Z,100477.87
2019-03-26T09:41:07.558Z,100476.04
2019-03-26T09:43:09.599Z,100478.61
2019-03-26T09:45:11.680Z,100474.34
2019-03-26T09:47:17.588Z,100469.41
2019-03-26T09:49:19.695Z,100463.16
2019-03-26T09:51:21.961Z,100465.71
2019-03-26T09:53:26.524Z,100466.42
2019-03-26T09:55:29.875Z,100468.48
2019-03-26T09:57:32.041Z,100459.03
2019-03-26T09:59:34.057Z,100452.53
2019-03-26T10:01:37.495Z,100460.97
2019-03-26T10:03:39.676Z,100457.23
2019-03-26T10:05:41.959Z,100455.19
2019-03-26T10:07:44.190Z,100450.81
2019-03-26T10:09:46.354Z,100452.4
2019-03-26T10:11:48.418Z,100444.09
2019-03-26T10:13:50.464Z,100443.7
2019-03-26T10:15:52.539Z,100442.01
2019-03-26T10:17:54.806Z,100423.33
2019-03-26T10:19:58.385Z,100422.5
2019-03-26T10:22:00.777Z,100421.61
2019-03-26T10:24:02.941Z,100416.47
2019-03-26T10:26:05.001Z,100410.88
2019-03-26T10:28:07.166Z,100402.96
2019-03-26T10:30:09.227Z,100396.23
2019-03-26T10:32:11.389Z,100390.22
2019-03-26T10:34:13.553Z,100383.14
2019-03-26T10:36:15.921Z,100392.36
2019-03-26T10:38:17.995Z,100380.25
2019-03-26T10:40:20.147Z,100376.94
2019-03-26T10:42:22.331Z,100369.45
2019-03-26T10:44:24.578Z,100379.33
2019-03-26T10:46:26.742Z,100375.59
2019-03-26T10:48:31.720Z,100344.34
2019-03-26T10:50:34.143Z,100344.88
2019-03-26T10:52:36.409Z,100326.48
2019-03-26T10:54:39.698Z,100321.86
2019-03-26T10:56:41.863Z,100312.64
2019-03-26T10:58:44.132Z,100301.48
2019-03-26T11:00:46.193Z,100299.38
2019-03-26T11:02:49.332Z,100297.06
2019-03-26T11:04:52.752Z,100304.56
2019-03-26T11:06:57.271Z,100294.52
2019-03-26T11:08:59.457Z,100292.34
2019-03-26T11:11:03.737Z,100283.14
2019-03-26T11:13:05.817Z,100277.23
2019-03-26T11:15:09.127Z,100276.2
2019-03-26T11:17:12.413Z,100268.89
2019-03-26T11:19:16.716Z,100266.38
2019-03-26T11:21:20.562Z,100257.11
2019-03-26T11:23:22.594Z,100263.59
2019-03-26T11:25:26.828Z,100260.77
2019-03-26T11:27:30.047Z,100262.18
2019-03-26T11:29:33.242Z,100252.88
2019-03-26T11:31:36.712Z,100246.22
2019-03-26T11:33:38.838Z,100233.94
2019-03-26T11:35:42.828Z,100231.83
2019-03-26T11:37:45.931Z,100224.75
2019-03-26T11:39:50.392Z,100218.84
2019-03-26T11:41:54.642Z,100214.77
2019-03-26T11:43:58.559Z,100203.37
2019-03-26T11:46:01.808Z,100207
2019-03-26T11:48:04.298Z,100203.7
2019-03-26T11:50:08.367Z,100202.29
2019-03-26T11:52:11.616Z,100192.8
2019-03-26T11:54:13.996Z,100201.14
2019-03-26T11:56:17.331Z,100195.69
2019-03-26T11:58:33.276Z,100186.58
2019-03-26T12:00:35.554Z,100177.01
2019-03-26T12:02:37.911Z,100187.03
2019-03-26T12:04:41.158Z,100183.97
2019-03-26T12:06:45.452Z,100179.69
2019-03-26T12:08:48.602Z,100166.56
2019-03-26T12:10:51.994Z,100156.66
2019-03-26T12:12:55.387Z,100163.33
2019-03-26T12:14:58.782Z,100163.8
2019-03-26T12:17:02.277Z,100160.78
2019-03-26T12:19:05.464Z,100160.02
2019-03-26T12:21:07.627Z,100156.34
2019-03-26T12:23:11.539Z,100168.06
2019-03-26T12:25:15.459Z,100161.88
2019-03-26T12:27:17.703Z,100169.41
2019-03-26T12:29:19.969Z,100190.53
2019-03-26T12:31:22.137Z,100180.72
2019-03-26T12:33:25.263Z,100187.67
2019-03-26T12:35:27.438Z,100189.54
2019-03-26T12:37:29.856Z,100173.33
2019-03-26T12:39:32.224Z,100176.24
2019-03-26T12:41:34.287Z,100175.14
2019-03-26T12:43:37.687Z,100176.78
2019-03-26T12:45:39.741Z,100176.09
2019-03-26T12:47:43.319Z,100182.87
2019-03-26T12:49:47.574Z,100185.19
2019-03-26T12:51:50.743Z,100172.42
2019-03-26T12:53:54.994Z,100162.16
2019-03-26T12:55:57.116Z,100169.95
2019-03-26T12:58:00.303Z,100177.91
2019-03-26T13:00:03.636Z,100170.8
2019-03-26T13:02:07.033Z,100171.09
2019-03-26T13:04:16.886Z,100163.45
2019-03-26T13:06:21.486Z,100168.98
2019-03-26T13:08:24.681Z,100172.87
2019-03-26T13:10:27.919Z,100176.33
2019-03-26T13:12:29.993Z,100184.89
2019-03-26T13:14:33.291Z,100182.19
2019-03-26T13:16:35.281Z,100163.63
2019-03-26T13:18:37.410Z,100179.59
2019-03-26T13:20:41.928Z,100156.57
2019-03-26T13:22:45.906Z,100145.87
2019-03-26T13:24:49.122Z,100153.04
2019-03-26T13:26:52.360Z,100157.78
2019-03-26T13:28:55.499Z,100147.34
2019-03-26T13:30:57.559Z,100146.03
2019-03-26T13:32:59.724Z,100133.94
2019-03-26T13:35:01.806Z,100136.72
2019-03-26T13:37:04.023Z,100128.08
2019-03-26T13:39:06.215Z,100144.95
2019-03-26T13:41:08.551Z,100143.07
2019-03-26T13:43:10.747Z,100135.47
2019-03-26T13:45:13.014Z,100139.38
2019-03-26T13:47:15.384Z,100139.09
2019-03-26T13:49:17.550Z,100144.48
2019-03-26T13:51:19.609Z,100145.77
2019-03-26T13:53:21.875Z,100148.48
2019-03-26T13:55:24.099Z,100149.08
2019-03-26T13:57:26.409Z,100157.81
2019-03-26T13:59:28.573Z,100150.33
2019-03-26T14:01:30.688Z,100153.48
2019-03-26T14:03:32.902Z,100151.23
2019-03-26T14:05:36.017Z,100156.15
2019-03-26T14:07:38.049Z,100165.53
2019-03-26T14:09:40.111Z,100189.33
2019-03-26T14:11:43.607Z,100158.08
2019-03-26T14:13:45.667Z,100158.52
2019-03-26T14:15:47.935Z,100165.36
2019-03-26T14:17:50.097Z,100158.93
2019-03-26T14:19:52.159Z,100151.63
2019-03-26T14:21:54.429Z,100162.3
2019-03-26T14:23:56.629Z,100153.95
2019-03-26T14:25:58.642Z,100160.31
2019-03-26T14:28:00.918Z,100154.28
2019-03-26T14:30:04.956Z,100146.39
2019-03-26T14:32:07.090Z,100144.86
2019-03-26T14:34:09.151Z,100135.36
2019-03-26T14:36:11.177Z,100139.52
2019-03-26T14:38:13.463Z,100143.83
2019-03-26T14:40:15.644Z,100133.22
2019-03-26T14:42:18.013Z,100130.45
2019-03-26T14:44:20.281Z,100138.02
2019-03-26T14:46:23.671Z,100133.08
2019-03-26T14:48:27.974Z,100135.17
2019-03-26T14:50:31.950Z,100139.52
2019-03-26T14:52:38.138Z,100177.7
2019-03-26T14:54:40.203Z,100274.21
2019-03-26T14:56:42.290Z,100293.45
2019-03-26T14:58:55.084Z,100307.14
2019-03-26T15:01:02.390Z,100307.48
2019-03-26T15:03:19.577Z,100305.46
2019-03-26T15:05:27.554Z,100321.74
2019-03-26T15:07:29.856Z,100317.06
2019-03-26T15:09:32.021Z,100306.53
2019-03-26T15:11:34.083Z,100314.83
2019-03-26T15:13:36.350Z,100317.47
2019-03-26T15:15:39.521Z,100310.78
2019-03-26T15:17:42.227Z,100313.39
2019-03-26T15:19:44.378Z,100307.18
2019-03-26T15:21:47.631Z,100290.45
2019-03-26T15:23:49.834Z,100277.19
2019-03-26T15:25:52.253Z,100276.66
2019-03-26T15:27:54.981Z,100269.64
2019-03-26T15:29:59.062Z,100270.2
2019-03-26T15:32:04.607Z,100270.55
2019-03-26T15:34:06.898Z,100274.98
2019-03-26T15:36:08.955Z,100284.94
2019-03-26T15:38:11.432Z,100290.03
2019-03-26T15:40:13.700Z,100293.98
2019-03-26T15:42:16.493Z,100283.19
2019-03-26T15:44:18.540Z,100274.19
2019-03-26T15:46:20.603Z,100275.34
2019-03-26T15:48:22.869Z,100277.53
2019-03-26T15:50:25.128Z,100262.84
2019-03-26T15:52:27.404Z,100266.98
2019-03-26T15:54:29.467Z,100272.28
2019-03-26T15:56:31.919Z,100280.89
2019-03-26T15:58:34.877Z,100280.76
2019-03-26T16:00:37.084Z,100280.58
2019-03-26T16:02:40.485Z,100283.63
2019-03-26T16:04:42.636Z,100287.76
2019-03-26T16:06:44.695Z,100289.66
2019-03-26T16:08:47.952Z,100300.56
2019-03-26T16:10:51.424Z,100298.63
2019-03-26T16:12:54.593Z,100298.2
2019-03-26T16:14:58.805Z,100293.66
2019-03-26T16:17:03.049Z,100300.38
2019-03-26T16:19:06.269Z,100302.38
2019-03-26T16:21:10.216Z,100305.09
2019-03-26T16:23:13.363Z,100308.55
2019-03-26T16:25:16.805Z,100305.97
2019-03-26T16:27:21.023Z,100308.61
2019-03-26T16:29:28.272Z,100314.75
2019-03-26T16:31:32.532Z,100320.19
2019-03-26T16:33:37.664Z,100321.75
2019-03-26T16:35:41.769Z,100324.86
2019-03-26T16:37:47.248Z,100328.34
2019-03-26T16:39:52.671Z,100326.97
2019-03-26T16:41:57.888Z,100328.39
2019-03-26T16:44:01.561Z,100336.88
2019-03-26T16:46:05.728Z,100321.52
2019-03-26T16:48:09.955Z,100327.53
2019-03-26T16:50:13.168Z,100326.15
2019-03-26T16:52:17.413Z,100335.03
2019-03-26T16:54:21.608Z,100337.23
2019-03-26T16:56:25.804Z,100349.7
2019-03-26T16:58:30.324Z,100362.81
2019-03-26T17:00:33.681Z,100368.69
2019-03-26T17:02:36.989Z,100369.98
2019-03-26T17:04:41.309Z,100373.83
2019-03-26T17:06:45.631Z,100378.08
2019-03-26T17:08:48.868Z,100381.61
2019-03-26T17:10:53.193Z,100384.28
2019-03-26T17:12:56.302Z,100377.73
2019-03-26T17:14:58.581Z,100383.39
2019-03-26T17:17:02.633Z,100380.92
2019-03-26T17:19:06.832Z,100385.13
2019-03-26T17:21:10.129Z,100389.14
2019-03-26T17:23:14.340Z,100400.08
2019-03-26T17:25:18.543Z,100408.84
2019-03-26T17:27:23.054Z,100414.29
2019-03-26T17:29:26.299Z,100420.25
2019-03-26T17:31:30.643Z,100417.77
2019-03-26T17:33:33.958Z,100424.16
2019-03-26T17:35:37.408Z,100430.55
2019-03-26T17:37:41.653Z,100435.37
2019-03-26T17:39:45.849Z,100438.78
2019-03-26T17:41:50.144Z,100439.42
2019-03-26T17:43:53.285Z,100441.66
2019-03-26T17:45:57.734Z,100449.56
2019-03-26T17:47:59.933Z,100457.98
2019-03-26T17:50:04.424Z,100452.01
2019-03-26T17:52:08.619Z,100468.02
2019-03-26T17:54:10.967Z,100468.97
2019-03-26T17:56:13.401Z,100471.23
2019-03-26T17:58:15.770Z,100474.36
2019-03-26T18:00:17.945Z,100475.4
2019-03-26T18:02:20.323Z,100475.26
2019-03-26T18:04:22.786Z,100477.33
2019-03-26T18:06:25.252Z,100484.24
2019-03-26T18:08:27.517Z,100487.17
2019-03-26T18:10:29.677Z,100493.95
2019-03-26T18:12:32.569Z,100496.84
2019-03-26T18:14:34.929Z,100496.56
2019-03-26T18:16:38.403Z,100504.38
2019-03-26T18:18:41.924Z,100513.38
2019-03-26T18:20:44.090Z,100512.48
2019-03-26T18:22:46.247Z,100517.48
2019-03-26T18:24:49.132Z,100515.75
2019-03-26T18:26:51.400Z,100521.33
2019-03-26T18:28:56.845Z,100529.92
2019-03-26T18:30:59.056Z,100530.27
2019-03-26T18:33:01.503Z,100532.95
2019-03-26T18:35:03.937Z,100543.55
2019-03-26T18:37:06.213Z,100538.86
2019-03-26T18:39:08.464Z,100542.39
2019-03-26T18:41:10.648Z,100544.7
2019-03-26T18:43:12.708Z,100550.56
2019-03-26T18:45:14.769Z,100554.98
2019-03-26T18:47:18.159Z,100554.48
2019-03-26T18:49:20.442Z,100558.14
2019-03-26T18:51:22.590Z,100558.12
2019-03-26T18:53:24.756Z,100569.67
2019-03-26T18:55:28.149Z,100573.25
2019-03-26T18:57:30.311Z,100572.67
2019-03-26T18:59:32.338Z,100577.07
2019-03-26T19:01:34.526Z,100574.8
2019-03-26T19:03:36.702Z,100579.22
2019-03-26T19:05:38.806Z,100592.28
2019-03-26T19:07:42.361Z,100596.03
2019-03-26T19:09:45.612Z,100596.44
2019-03-26T19:11:47.780Z,100598
2019-03-26T19:13:49.925Z,100599.09
2019-03-26T19:15:52.128Z,100600.72
2019-03-26T19:17:54.332Z,100605.56
2019-03-26T19:19:59.547Z,100605.61
2019-03-26T19:22:01.816Z,100617.57
2019-03-26T19:24:05.869Z,100620.76
2019-03-26T19:26:07.983Z,100620.91
2019-03-26T19:28:10.042Z,100627.62
2019-03-26T19:30:12.180Z,100628.25
2019-03-26T19:32:14.269Z,100635.58
2019-03-26T19:34:16.329Z,100637.37
2019-03-26T19:36:18.494Z,100634.94
2019-03-26T19:38:20.538Z,100647.37
2019-03-26T19:40:22.618Z,100638.5
2019-03-26T19:42:24.679Z,100636.9
2019-03-26T19:44:26.740Z,100645.46
2019-03-26T19:46:28.912Z,100646.06
2019-03-26T19:48:31.061Z,100650.57
2019-03-26T19:50:33.438Z,100660.93
2019-03-26T19:52:35.603Z,100655.13
2019-03-26T19:54:39.299Z,100662.56
2019-03-26T19:56:41.482Z,100661.54
2019-03-26T19:58:43.733Z,100670.47
2019-03-26T20:00:46.000Z,100676.27
2019-03-26T20:02:48.163Z,100677.44
2019-03-26T20:04:50.533Z,100684.78
2019-03-26T20:06:52.655Z,100684.07
2019-03-26T20:08:54.862Z,100691.23
2019-03-26T20:10:56.924Z,100698.51
2019-03-26T20:12:59.088Z,100702.45
2019-03-26T20:15:01.556Z,100706.14
2019-03-26T20:17:03.619Z,100708.52
2019-03-26T20:19:05.876Z,100714.87
2019-03-26T20:21:08.254Z,100720.18
2019-03-26T20:23:10.418Z,100723.36
2019-03-26T20:25:12.496Z,100720.45
2019-03-26T20:27:14.746Z,100728
2019-03-26T20:29:17.016Z,100728.13
2019-03-26T20:31:19.226Z,100736.77
2019-03-26T20:33:21.343Z,100733.58
2019-03-26T20:35:23.610Z,100738.8
2019-03-26T20:37:28.128Z,100736.81
2019-03-26T20:39:30.291Z,100741.02
2019-03-26T20:41:32.558Z,100732.84
2019-03-26T20:43:38.718Z,100737.84
2019-03-26T20:45:40.809Z,100736.19
2019-03-26T20:47:42.924Z,100736.52
2019-03-26T20:49:45.109Z,100737.12
2019-03-26T20:51:47.188Z,100744.41
2019-03-26T20:53:49.742Z,100747.38
2019-03-26T20:55:55.899Z,100747.57
2019-03-26T20:57:58.063Z,100753.16
2019-03-26T21:00:00.840Z,100760.16
2019-03-26T21:02:03.157Z,100766.84
2019-03-26T21:04:05.332Z,100773.41
2019-03-26T21:06:07.638Z,100772.02
2019-03-26T21:08:10.203Z,100780.27
2019-03-26T21:10:12.379Z,100784.4
2019-03-26T21:12:14.541Z,100787.09
2019-03-26T21:14:16.573Z,100789.92
2019-03-26T21:16:18.870Z,100784.08
2019-03-26T21:18:21.687Z,100795.3
2019-03-26T21:20:23.918Z,100803.56
2019-03-26T21:22:26.082Z,100807.44
2019-03-26T21:24:29.278Z,100809.84
2019-03-26T21:26:31.782Z,100818.14
2019-03-26T21:28:37.434Z,100818.78
2019-03-26T21:30:40.027Z,100816.37
2019-03-26T21:32:42.423Z,100823.21
2019-03-26T21:34:45.376Z,100825.67
2019-03-26T21:36:49.785Z,100825.72
2019-03-26T21:39:05.653Z,100825.59
2019-03-26T21:41:08.708Z,100829.87
2019-03-26T21:43:11.583Z,100825.23
2019-03-26T21:45:15.614Z,100835.63
2019-03-26T21:47:20.330Z,100851.77
2019-03-26T21:49:23.908Z,100851.77
2019-03-26T21:51:30.104Z,100846.98
2019-03-26T21:53:32.550Z,100856.5
2019-03-26T21:55:34.825Z,100860.23
2019-03-26T21:57:37.044Z,100862.64
2019-03-26T21:59:39.255Z,100866.61
2019-03-26T22:01:41.424Z,100861.91
2019-03-26T22:03:43.582Z,100862.41
2019-03-26T22:05:49.682Z,100866.02
2019-03-26T22:07:52.111Z,100870.48
2019-03-26T22:09:58.640Z,100874.03
2019-03-26T22:12:00.860Z,100882.81
2019-03-26T22:14:18.751Z,100882.62
